Time;durP1;ratioP1;P1;durP2;ratioP2;P2;SDS_P1;SDS_P2;PMS_P1;PMS_P2;Temp;Humidity;BMP_temperature;BMP_pressure;BME280_temperature;BME280_humidity;BME280_pressure;Samples;Min_cycle;Max_cycle;Signal;HPM_P1;HPM_P2
2021/01/22 00:00:39;;;;;;;14.25;8.15;;;;;;;22.12;34.66;99279.59;1749562;79;21601;-9
2021/01/22 00:03:06;;;;;;;10.45;8.08;;;;;;;22.12;34.73;99276.91;1790695;78;21124;-9
2021/01/22 00:05:34;;;;;;;15.03;8.15;;;;;;;22.12;34.71;99282.27;1731766;80;21116;-9
2021/01/22 00:08:02;;;;;;;10.82;7.87;;;;;;;22.12;34.63;99271.55;1772902;78;21153;-9
2021/01/22 00:10:30;;;;;;;12.40;7.95;;;;;;;22.12;34.69;99271.55;1806706;77;21964;-9
2021/01/22 00:12:58;;;;;;;12.75;8.15;;;;;;;22.11;34.67;99271.22;1784274;78;21142;-9
2021/01/22 00:15:26;;;;;;;11.93;7.95;;;;;;;22.12;34.70;99268.03;1741438;80;21161;-9
2021/01/22 00:17:58;;;;;;;10.88;8.08;;;;;;;22.10;34.74;99261.47;1758486;77;21660;-9
2021/01/22 00:20:25;;;;;;;10.30;8.03;;;;;;;22.11;34.79;99267.66;1765072;78;21161;-9
2021/01/22 00:22:53;;;;;;;12.98;8.38;;;;;;;22.11;34.80;99264.52;1792229;77;21213;-9
2021/01/22 00:25:20;;;;;;;9.05;7.33;;;;;;;22.11;34.84;99263.18;1753886;79;21192;-9
2021/01/22 00:27:48;;;;;;;10.93;8.03;;;;;;;22.12;34.94;99256.81;1772860;77;21105;-9
2021/01/22 00:30:16;;;;;;;18.80;8.20;;;;;;;22.12;35.01;99258.66;1779061;78;21124;-9
2021/01/22 00:32:43;;;;;;;10.32;8.18;;;;;;;22.11;35.01;99263.18;1772468;77;21163;-9
2021/01/22 00:35:11;;;;;;;15.83;9.10;;;;;;;22.12;35.14;99256.81;1761493;78;21077;-9
2021/01/22 00:37:39;;;;;;;11.18;8.25;;;;;;;22.12;35.17;99255.48;1766453;79;21596;-9
2021/01/22 00:40:08;;;;;;;11.57;8.20;;;;;;;22.12;35.30;99248.78;1807252;78;21186;-9
2021/01/22 00:42:36;;;;;;;11.33;8.15;;;;;;;22.12;35.44;99243.42;1745333;78;21200;-9
2021/01/22 00:45:07;;;;;;;13.62;8.08;;;;;;;22.12;35.39;99243.42;1771944;77;21372;-9
2021/01/22 00:47:35;;;;;;;11.97;8.08;;;;;;;22.12;35.54;99239.41;1764573;78;21200;-9
2021/01/22 00:50:04;;;;;;;20.40;8.48;;;;;;;22.13;35.50;99240.27;1782959;77;21611;-9
2021/01/22 00:52:33;;;;;;;9.50;8.20;;;;;;;22.14;35.56;99237.94;1770245;78;21103;-9
2021/01/22 00:55:05;;;;;;;12.82;8.35;;;;;;;22.14;35.63;99238.80;1771462;77;21193;-9
2021/01/22 00:57:41;;;;;;;12.15;8.28;;;;;;;22.15;35.55;99235.62;1754022;80;21329;-9
2021/01/22 01:00:13;;;;;;;9.00;8.05;;;;;;;22.14;35.56;99221.39;1730731;77;21181;-9
2021/01/22 01:02:43;;;;;;;12.45;8.23;;;;;;;22.15;35.50;99231.10;1764756;78;21150;-9
2021/01/22 01:05:11;;;;;;;11.85;7.72;;;;;;;22.15;35.49;99221.72;1754298;78;21653;-9
2021/01/22 01:07:39;;;;;;;13.55;8.30;;;;;;;22.14;35.55;99218.70;1744530;77;21578;-9
2021/01/22 01:10:09;;;;;;;12.10;7.92;;;;;;;22.14;35.50;99216.03;1755454;78;21161;-9
2021/01/22 01:12:57;;;;;;;12.60;8.10;;;;;;;22.18;35.46;99216.60;1836956;76;22561;-8
2021/01/22 01:15:41;;;;;;;12.75;8.30;;;;;;;22.14;35.43;99220.05;1811899;77;21588;-9
2021/01/22 01:18:09;;;;;;;8.58;7.62;;;;;;;22.14;35.47;99221.39;1764912;78;21170;-8
2021/01/22 01:20:37;;;;;;;9.20;7.95;;;;;;;22.15;35.47;99207.48;1799190;78;21157;-9
2021/01/22 01:23:04;;;;;;;10.43;7.70;;;;;;;22.14;35.49;99203.97;1840529;78;21192;-8
2021/01/22 01:25:32;;;;;;;12.58;8.03;;;;;;;22.14;35.44;99196.40;1784103;78;21164;-8
2021/01/22 01:28:00;;;;;;;11.83;7.92;;;;;;;22.14;35.46;99195.93;1805255;78;21192;-8
2021/01/22 01:30:28;;;;;;;9.10;7.97;;;;;;;22.16;35.48;99195.80;1838359;78;21176;-9
2021/01/22 01:32:55;;;;;;;13.90;7.78;;;;;;;22.15;35.52;99198.95;1814652;78;21171;-8
2021/01/22 01:35:23;;;;;;;9.98;7.95;;;;;;;22.16;35.51;99195.80;1788162;76;21133;-8
2021/01/22 01:37:50;;;;;;;12.43;8.10;;;;;;;22.16;35.54;99195.80;1796592;78;21148;-8
2021/01/22 01:40:18;;;;;;;11.55;8.33;;;;;;;22.16;35.66;99189.94;1810815;78;21082;-8
2021/01/22 01:42:46;;;;;;;10.72;8.53;;;;;;;22.17;35.68;99192.12;1798463;76;21273;-8
2021/01/22 01:45:16;;;;;;;14.28;8.38;;;;;;;22.17;35.82;99184.08;1819433;76;21172;-9
2021/01/22 01:47:44;;;;;;;10.68;7.62;;;;;;;22.17;35.85;99184.92;1801541;78;21180;-9
2021/01/22 01:50:13;;;;;;;10.85;7.72;;;;;;;22.19;35.88;99178.95;1788585;78;21164;-9
2021/01/22 01:52:41;;;;;;;11.57;7.72;;;;;;;22.19;36.05;99176.27;1775479;79;21156;-9
2021/01/22 01:55:10;;;;;;;15.10;6.97;;;;;;;22.21;36.17;99176.14;1813024;78;22090;-9
2021/01/22 01:57:38;;;;;;;11.08;7.62;;;;;;;22.20;36.22;99169.91;1803208;78;21125;-10
2021/01/22 02:00:07;;;;;;;11.73;7.58;;;;;;;22.22;36.25;99173.80;1777299;79;21113;-9
2021/01/22 02:02:36;;;;;;;13.68;7.08;;;;;;;22.22;36.34;99173.80;1753012;79;21181;-9
2021/01/22 02:05:06;;;;;;;14.47;7.17;;;;;;;22.23;36.42;99168.30;1842504;77;21174;-9
2021/01/22 02:07:33;;;;;;;9.95;7.05;;;;;;;22.24;36.49;99171.36;1763512;78;21368;-9
2021/01/22 02:10:00;;;;;;;16.10;6.90;;;;;;;22.25;36.53;99162.31;1795672;77;21120;-9
2021/01/22 02:12:29;;;;;;;11.53;6.78;;;;;;;22.25;36.62;99154.27;1767508;78;21170;-9
2021/01/22 02:14:57;;;;;;;14.73;6.60;;;;;;;22.28;36.71;99157.69;1685453;81;21141;-9
2021/01/22 02:17:25;;;;;;;10.23;6.85;;;;;;;22.28;36.80;99173.77;1726128;81;21128;-9
2021/01/22 02:20:11;;;;;;;9.58;7.15;;;;;;;22.30;36.85;99171.83;1753284;80;21150;-8
2021/01/22 02:22:38;;;;;;;9.00;6.55;;;;;;;22.31;36.84;99168.14;1741776;81;21131;-9
2021/01/22 02:25:08;;;;;;;11.55;6.67;;;;;;;22.32;36.85;99167.17;1717306;80;21220;-9
2021/01/22 02:27:37;;;;;;;9.53;7.10;;;;;;;22.33;36.89;99165.69;1757278;80;21659;-9
2021/01/22 02:30:06;;;;;;;8.95;7.05;;;;;;;22.33;36.90;99165.69;1767769;79;21193;-9
2021/01/22 02:32:34;;;;;;;8.98;7.05;;;;;;;22.35;36.95;99165.56;1751298;80;21406;-9
2021/01/22 02:35:07;;;;;;;8.50;6.85;;;;;;;22.35;36.97;99166.90;1744625;79;21193;-9
2021/01/22 02:37:37;;;;;;;10.68;6.87;;;;;;;22.35;37.03;99157.52;1743744;80;21216;-9
2021/01/22 02:40:10;;;;;;;8.80;6.58;;;;;;;22.36;37.09;99160.53;1733448;81;21615;-9
2021/01/22 02:42:40;;;;;;;13.70;7.20;;;;;;;22.36;37.20;99149.34;1783854;79;21110;-8
2021/01/22 02:45:10;;;;;;;11.05;6.80;;;;;;;22.37;37.29;99155.04;1722911;79;21200;-8
2021/01/22 02:47:43;;;;;;;8.45;6.35;;;;;;;22.38;37.37;99150.05;1741983;80;22496;-8
2021/01/22 02:50:18;;;;;;;9.07;6.70;;;;;;;22.39;37.44;99141.50;1745355;79;21163;-8
2021/01/22 02:52:45;;;;;;;7.37;6.53;;;;;;;22.42;37.47;99148.77;1777109;80;21140;-8
2021/01/22 02:55:16;;;;;;;13.90;6.33;;;;;;;22.42;37.49;99143.41;1708354;79;21161;-8
2021/01/22 02:57:55;;;;;;;6.92;6.22;;;;;;;22.42;37.45;99136.70;1748974;81;21207;-8
2021/01/22 03:00:29;;;;;;;9.10;6.35;;;;;;;22.43;37.48;99141.09;1720999;80;21970;-9
2021/01/22 03:03:05;;;;;;;9.35;6.42;;;;;;;22.44;37.44;99140.59;1746563;80;21160;-8
2021/01/22 03:05:34;;;;;;;6.72;6.03;;;;;;;22.45;37.41;99128.89;1718012;81;21616;-8
2021/01/22 03:08:14;;;;;;;11.20;6.42;;;;;;;22.44;37.39;99134.77;1767080;79;21161;-8
2021/01/22 03:10:42;;;;;;;9.43;6.70;;;;;;;22.45;37.38;99141.80;1752683;80;21356;-10
2021/01/22 03:13:11;;;;;;;6.80;6.10;;;;;;;22.47;37.34;99132.28;1741968;79;21148;-9
2021/01/22 03:15:39;;;;;;;7.50;6.70;;;;;;;22.46;37.31;99130.61;1746994;79;21133;-8
2021/01/22 03:18:17;;;;;;;7.22;6.20;;;;;;;22.47;37.31;99131.44;1771475;78;21140;-8
2021/01/22 03:20:46;;;;;;;7.90;6.22;;;;;;;22.48;37.30;99128.62;1733495;78;21632;-8
2021/01/22 03:23:15;;;;;;;8.55;6.37;;;;;;;22.48;37.28;99120.58;1783337;79;21135;-8
2021/01/22 03:25:43;;;;;;;7.97;6.80;;;;;;;22.48;37.30;99121.92;1811872;78;21184;-9
2021/01/22 03:28:10;;;;;;;9.88;6.35;;;;;;;22.49;37.29;99120.91;1728211;79;21506;-9
2021/01/22 03:30:39;;;;;;;7.87;6.85;;;;;;;22.50;37.32;99125.30;1739454;78;21156;-9
2021/01/22 03:33:06;;;;;;;7.12;6.40;;;;;;;22.50;37.33;99128.48;1777334;79;21180;-9
2021/01/22 03:35:34;;;;;;;8.43;6.72;;;;;;;22.50;37.29;99127.98;1783286;79;21657;-8
2021/01/22 03:38:02;;;;;;;7.50;6.67;;;;;;;22.50;36.67;99130.66;1745970;79;21204;-8
2021/01/22 03:40:31;;;;;;;8.75;6.60;;;;;;;22.51;35.47;99131.03;1761182;80;21163;-8
2021/01/22 03:42:58;;;;;;;7.30;6.42;;;;;;;22.51;35.30;99127.02;1789651;78;21735;-9
2021/01/22 03:45:26;;;;;;;6.95;6.25;;;;;;;22.50;35.25;99127.98;1730711;80;21134;-8
2021/01/22 03:47:53;;;;;;;7.28;6.58;;;;;;;22.50;35.16;99129.33;1724989;81;21401;-8
2021/01/22 03:50:21;;;;;;;7.10;6.50;;;;;;;22.50;35.11;99122.63;1774101;78;21154;-8
2021/01/22 03:52:48;;;;;;;8.18;6.40;;;;;;;22.49;35.05;99118.73;1761845;78;21169;-9
2021/01/22 03:55:19;;;;;;;8.58;6.50;;;;;;;22.48;35.01;99119.24;1774329;78;21142;-9
2021/01/22 03:57:46;;;;;;;8.03;6.22;;;;;;;22.47;35.00;99122.89;1753655;79;21129;-8
2021/01/22 04:00:16;;;;;;;7.08;6.30;;;;;;;22.47;34.90;99122.89;1758312;78;22454;-8
2021/01/22 04:02:43;;;;;;;8.48;6.58;;;;;;;22.46;34.84;99123.91;1736929;79;21648;-8
2021/01/22 04:05:12;;;;;;;7.58;6.62;;;;;;;22.46;34.78;99123.91;1714292;79;21181;-8
2021/01/22 04:07:40;;;;;;;7.53;6.80;;;;;;;22.44;34.73;99125.84;1774005;78;21046;-9
2021/01/22 04:10:09;;;;;;;8.63;6.33;;;;;;;22.44;34.67;99128.53;1749549;78;21174;-9
2021/01/22 04:12:36;;;;;;;9.10;6.53;;;;;;;22.43;34.76;99129.53;1793646;78;21189;-8
2021/01/22 04:15:06;;;;;;;7.65;6.65;;;;;;;22.43;34.66;99117.47;1805002;77;21641;-8
2021/01/22 04:17:34;;;;;;;7.12;6.42;;;;;;;22.43;34.61;99126.86;1745971;79;21121;-8
2021/01/22 04:20:05;;;;;;;7.58;6.62;;;;;;;22.42;34.55;99122.47;1795046;78;21077;-8
2021/01/22 04:22:33;;;;;;;7.20;5.95;;;;;;;22.42;34.49;99117.11;1785451;78;21160;-8
2021/01/22 04:25:00;;;;;;;10.72;6.67;;;;;;;22.40;34.48;99109.70;1800868;78;21282;-8
2021/01/22 04:27:28;;;;;;;7.08;6.30;;;;;;;22.41;34.43;99115.43;1774201;79;21162;-8
2021/01/22 04:29:55;;;;;;;7.67;6.58;;;;;;;22.38;34.38;99106.32;1738072;78;21584;-8
2021/01/22 04:32:23;;;;;;;8.20;6.60;;;;;;;22.41;34.40;99110.07;1767625;78;21142;-8
2021/01/22 04:34:51;;;;;;;8.55;6.28;;;;;;;22.38;34.38;99106.32;1771814;78;21645;-8
2021/01/22 04:37:19;;;;;;;6.40;5.80;;;;;;;22.38;34.35;99107.66;1751620;80;21400;-8
2021/01/22 04:39:46;;;;;;;8.38;5.87;;;;;;;22.38;34.31;99104.98;1769739;79;21152;-8
2021/01/22 04:42:18;;;;;;;16.23;6.20;;;;;;;22.38;34.58;99113.86;1818358;78;21180;-8
2021/01/22 04:44:45;;;;;;;9.48;6.10;;;;;;;22.37;34.76;99109.97;1765294;80;21141;-9
2021/01/22 04:47:12;;;;;;;8.13;6.33;;;;;;;22.37;34.94;99104.11;1726716;80;21616;-8
2021/01/22 04:49:40;;;;;;;6.70;6.05;;;;;;;22.37;35.03;99102.77;1770737;79;21153;-8
2021/01/22 04:52:10;;;;;;;6.75;5.95;;;;;;;22.38;35.10;99104.98;1745010;79;21197;-9
2021/01/22 04:54:42;;;;;;;7.40;6.55;;;;;;;22.38;35.14;99101.80;1768935;79;21192;-9
2021/01/22 04:57:09;;;;;;;8.25;5.92;;;;;;;22.42;34.88;99105.88;1718061;80;21112;-9
2021/01/22 04:59:49;;;;;;;8.75;6.22;;;;;;;22.43;34.25;99104.06;1728599;81;21163;-9
2021/01/22 05:02:20;;;;;;;8.45;6.40;;;;;;;22.44;34.22;99107.08;1742329;80;21374;-9
2021/01/22 05:04:50;;;;;;;7.80;6.15;;;;;;;22.44;34.33;99105.75;1761466;80;21581;-9
2021/01/22 05:07:23;;;;;;;6.90;6.20;;;;;;;22.44;34.53;99108.42;1714941;80;21626;-9
2021/01/22 05:09:54;;;;;;;7.12;6.28;;;;;;;22.45;34.65;99111.47;1764734;79;21239;-9
2021/01/22 05:12:21;;;;;;;6.97;6.22;;;;;;;22.44;34.79;99108.42;1714453;81;21144;-9
2021/01/22 05:14:48;;;;;;;7.58;6.10;;;;;;;22.45;34.94;99106.11;1705540;82;21397;-9
2021/01/22 05:17:16;;;;;;;7.33;6.22;;;;;;;22.48;35.06;99111.20;1715228;81;21222;-9
2021/01/22 05:19:44;;;;;;;6.92;6.22;;;;;;;22.50;35.15;99108.38;1716243;82;21141;-9
2021/01/22 05:22:15;;;;;;;8.00;6.25;;;;;;;22.50;35.24;99113.23;1729202;80;21057;-9
2021/01/22 05:24:43;;;;;;;6.97;5.75;;;;;;;22.52;35.32;99109.92;1691609;80;21154;-9
2021/01/22 05:27:14;;;;;;;7.53;6.78;;;;;;;22.53;35.46;99104.09;1700694;83;21905;-9
2021/01/22 05:29:43;;;;;;;8.93;7.55;;;;;;;22.54;35.20;99099.89;1692051;81;21175;-9
2021/01/22 05:32:28;;;;;;;8.73;7.78;;;;;;;22.53;34.71;99096.88;1721112;82;21640;-9
2021/01/22 05:34:57;;;;;;;9.43;8.03;;;;;;;22.51;34.46;99104.23;1740187;80;21155;-9
2021/01/22 05:37:27;;;;;;;9.35;8.18;;;;;;;22.48;34.18;99108.99;1699986;81;21206;-9
2021/01/22 05:40:13;;;;;;;10.70;9.25;;;;;;;22.44;34.17;99109.77;1715294;82;21245;-9
2021/01/22 05:42:51;;;;;;;10.58;8.85;;;;;;;22.38;33.97;99106.32;1759143;80;21156;-9
2021/01/22 05:45:41;;;;;;;10.30;9.20;;;;;;;22.35;33.76;99107.43;1760526;80;21488;-9
2021/01/22 05:48:23;;;;;;;11.63;8.80;;;;;;;22.33;33.71;99105.89;1727510;81;21137;-9
2021/01/22 05:50:59;;;;;;;12.23;9.48;;;;;;;22.30;33.62;99102.14;1740396;80;21126;-9
2021/01/22 05:53:27;;;;;;;13.45;9.33;;;;;;;22.28;33.38;99106.77;1707465;80;21474;-9
2021/01/22 05:56:11;;;;;;;9.40;8.43;;;;;;;22.24;33.28;99098.12;1721656;82;21663;-9
2021/01/22 05:58:43;;;;;;;12.10;9.65;;;;;;;22.23;33.45;99109.85;1744520;80;21130;-9
2021/01/22 06:01:14;;;;;;;11.18;8.63;;;;;;;22.21;33.09;99115.84;1750857;80;21615;-9
2021/01/22 06:03:45;;;;;;;10.78;9.10;;;;;;;22.20;33.30;99116.82;1724274;80;22186;-9
2021/01/22 06:06:13;;;;;;;15.78;9.05;;;;;;;22.17;33.39;99119.27;1771078;80;21360;-9
2021/01/22 06:08:57;;;;;;;10.65;9.28;;;;;;;22.14;33.22;99126.27;1685184;82;21211;-8
2021/01/22 06:11:32;;;;;;;11.38;9.63;;;;;;;22.14;33.36;99124.92;1692494;82;21209;-8
2021/01/22 06:14:06;;;;;;;9.90;8.75;;;;;;;22.12;33.63;99116.66;1755623;79;21641;-8
2021/01/22 06:16:36;;;;;;;9.45;8.45;;;;;;;22.07;33.43;99123.75;1772750;79;21624;-8
2021/01/22 06:19:07;;;;;;;12.30;8.70;;;;;;;22.03;33.24;99114.31;1775949;78;21196;-8
2021/01/22 06:21:45;;;;;;;10.13;8.98;;;;;;;22.00;33.21;99117.25;1770547;78;21256;-9
2021/01/22 06:24:13;;;;;;;11.35;9.28;;;;;;;21.96;33.45;99111.33;1771090;78;21610;-8
2021/01/22 06:26:42;;;;;;;11.00;9.50;;;;;;;21.94;33.12;99110.63;1800743;79;21174;-9
2021/01/22 06:29:10;;;;;;;11.90;9.33;;;;;;;21.93;32.98;99104.05;1778241;79;21130;-9
2021/01/22 06:31:38;;;;;;;11.40;9.25;;;;;;;21.92;33.01;99102.35;1764830;80;21584;-8
2021/01/22 06:34:07;;;;;;;12.90;9.20;;;;;;;21.91;33.38;99109.55;1730303;79;21189;-8
2021/01/22 06:36:35;;;;;;;12.88;9.58;;;;;;;21.91;33.46;99112.22;1764192;80;21193;-9
2021/01/22 06:39:06;;;;;;;12.28;9.55;;;;;;;21.88;32.96;99114.67;1733162;81;21170;-9
2021/01/22 06:41:37;;;;;;;9.60;8.68;;;;;;;21.85;32.79;99112.25;1778117;79;21113;-9
2021/01/22 06:44:07;;;;;;;11.57;9.45;;;;;;;21.83;32.77;99108.87;1756821;81;22040;-9
2021/01/22 06:46:38;;;;;;;12.05;9.48;;;;;;;21.83;32.69;99097.32;1747812;81;21149;-9
2021/01/22 06:49:09;;;;;;;11.95;8.78;;;;;;;21.82;32.70;99100.97;1732488;81;21169;-10
2021/01/22 06:51:37;;;;;;;10.68;9.30;;;;;;;21.80;32.56;99098.42;1761105;79;21113;-10
2021/01/22 06:54:21;;;;;;;10.98;9.75;;;;;;;21.79;32.42;99098.59;1762396;79;21199;-10
2021/01/22 06:56:57;;;;;;;11.05;8.80;;;;;;;21.78;32.42;99100.39;1720818;82;22210;-10
2021/01/22 06:59:37;;;;;;;10.68;9.28;;;;;;;21.76;32.38;99099.69;1804619;78;21167;-10
2021/01/22 07:02:35;;;;;;;12.33;9.40;;;;;;;21.75;32.26;99103.34;1760898;79;21173;-8
2021/01/22 07:05:34;;;;;;;12.65;9.43;;;;;;;21.73;32.24;99103.97;1768788;79;22221;-9
2021/01/22 07:08:02;;;;;;;12.98;9.73;;;;;;;21.72;32.65;99106.31;1729722;81;21126;-9
2021/01/22 07:10:56;;;;;;;10.80;9.58;;;;;;;21.73;32.41;99097.27;1785813;79;21192;-9
2021/01/22 07:13:38;;;;;;;15.10;10.05;;;;;;;21.71;32.59;99096.57;1789328;78;21128;-9
2021/01/22 07:16:08;;;;;;;12.98;10.15;;;;;;;21.73;32.59;99090.58;1791435;78;21161;-9
2021/01/22 07:18:53;;;;;;;12.63;9.55;;;;;;;21.73;32.60;99098.61;1781599;79;21623;-9
2021/01/22 07:21:32;;;;;;;12.55;10.38;;;;;;;21.76;32.67;99093.00;1760361;77;21641;-9
2021/01/22 07:24:03;;;;;;;20.17;10.85;;;;;;;21.77;32.46;99100.06;1764135;79;22165;-9
2021/01/22 07:26:39;;;;;;;23.22;10.60;;;;;;;21.79;32.11;99104.78;1771990;79;21196;-10
2021/01/22 07:29:14;;;;;;;38.45;21.15;;;;;;;21.80;32.48;99097.09;1744308;78;21152;-10
2021/01/22 07:31:57;;;;;;;34.25;24.25;;;;;;;21.80;31.61;99097.09;1781569;77;21134;-8
2021/01/22 07:34:43;;;;;;;25.17;17.52;;;;;;;21.76;31.17;99103.70;1781380;77;21172;-9
2021/01/22 07:37:16;;;;;;;24.00;15.65;;;;;;;21.78;31.76;99104.91;1786177;77;21207;-10
2021/01/22 07:39:58;;;;;;;23.47;15.15;;;;;;;21.87;32.19;99100.94;1836134;75;23254;-10
2021/01/22 07:42:27;;;;;;;18.73;13.90;;;;;;;21.89;32.44;99105.66;1799811;77;21205;-9
2021/01/22 07:45:12;;;;;;;19.52;13.85;;;;;;;21.98;32.59;99106.67;1778619;76;21132;-10
2021/01/22 07:47:44;;;;;;;15.75;12.43;;;;;;;22.08;32.65;99100.01;1770333;79;21182;-10
2021/01/22 07:50:17;;;;;;;20.35;13.13;;;;;;;22.15;32.61;99105.17;1794634;77;21142;-10
2021/01/22 07:52:48;;;;;;;23.83;12.73;;;;;;;22.23;32.72;99103.16;1792169;76;21172;-9
2021/01/22 07:55:23;;;;;;;17.27;12.78;;;;;;;22.30;32.65;99108.84;1794886;76;21189;-9
2021/01/22 07:58:04;;;;;;;17.57;12.70;;;;;;;22.35;32.90;99103.91;1779306;76;21229;-10
2021/01/22 08:00:39;;;;;;;19.10;12.18;;;;;;;22.43;32.79;99114.29;1787515;77;21804;-10
2021/01/22 08:03:07;;;;;;;17.30;11.33;;;;;;;22.50;32.86;99112.41;1783135;77;21016;-10
2021/01/22 08:05:36;;;;;;;16.57;11.53;;;;;;;22.56;32.85;99112.69;1815866;76;21190;-9
2021/01/22 08:08:20;;;;;;;15.28;10.95;;;;;;;22.61;32.86;99106.89;1808799;77;21127;-9
2021/01/22 08:10:48;;;;;;;13.60;8.95;;;;;;;22.67;32.88;99112.20;1809226;77;21352;-10
2021/01/22 08:13:17;;;;;;;15.85;8.93;;;;;;;22.73;32.88;99104.44;1818534;77;21612;-10
2021/01/22 08:15:44;;;;;;;15.58;9.35;;;;;;;22.79;32.95;99102.52;1816577;77;21171;-10
2021/01/22 08:18:13;;;;;;;17.12;9.25;;;;;;;22.85;32.83;99109.64;1837034;77;21182;-10
2021/01/22 08:20:50;;;;;;;12.60;8.83;;;;;;;22.90;32.99;99104.73;1774069;76;21702;-9
2021/01/22 08:23:20;;;;;;;13.40;8.55;;;;;;;22.93;33.03;99097.23;1782153;77;21181;-9
2021/01/22 08:25:47;;;;;;;15.03;8.38;;;;;;;22.97;33.09;99093.27;1809671;77;21143;-10
2021/01/22 08:28:15;;;;;;;10.75;7.97;;;;;;;23.03;32.82;99096.37;1810043;77;21626;-8
2021/01/22 08:30:42;;;;;;;14.68;7.42;;;;;;;23.04;32.74;99103.44;1799145;77;21134;-8
2021/01/22 08:33:13;;;;;;;11.53;7.97;;;;;;;23.06;32.74;99105.00;1830182;76;21170;-9
2021/01/22 08:35:41;;;;;;;12.58;8.00;;;;;;;23.08;32.63;99096.81;1793427;77;21630;-9
2021/01/22 08:38:08;;;;;;;13.20;8.25;;;;;;;23.10;32.51;99101.53;1794046;77;21245;-10
2021/01/22 08:40:40;;;;;;;9.83;8.10;;;;;;;23.11;32.41;99100.05;1775808;79;21145;-9
2021/01/22 08:43:12;;;;;;;12.25;8.60;;;;;;;23.13;32.30;99099.91;1773744;79;21645;-9
2021/01/22 08:45:41;;;;;;;11.85;8.18;;;;;;;23.13;32.21;99094.07;1777449;80;21178;-10
2021/01/22 08:48:10;;;;;;;10.63;8.13;;;;;;;23.13;31.96;99087.84;1735099;80;21187;-10
2021/01/22 08:50:39;;;;;;;12.37;8.43;;;;;;;23.13;32.09;99086.50;1750422;79;21183;-10
2021/01/22 08:55:49;;;;;;;12.68;7.70;;;;;;;23.18;32.45;99080.20;1829839;76;22699;1
2021/01/22 08:58:16;;;;;;;13.83;8.68;;;;;;;23.18;32.63;99073.48;1796195;77;21013;-9
2021/01/22 09:00:44;;;;;;;17.77;9.70;;;;;;;23.23;32.81;99075.75;1740810;80;21199;-10
2021/01/22 09:03:22;;;;;;;20.85;11.83;;;;;;;23.26;32.37;99070.93;1736898;77;21048;-9
2021/01/22 09:05:54;;;;;;;23.22;11.65;;;;;;;23.27;31.33;99073.98;1775503;79;21191;-9
2021/01/22 09:08:23;;;;;;;20.45;11.78;;;;;;;23.26;31.75;99066.06;1754853;77;21144;-8
2021/01/22 09:10:51;;;;;;;17.45;10.72;;;;;;;23.23;31.77;99069.88;1755799;79;21155;-9
2021/01/22 09:13:21;;;;;;;19.30;11.20;;;;;;;23.19;31.73;99072.51;1749008;77;22227;-10
2021/01/22 09:15:49;;;;;;;13.32;10.03;;;;;;;23.14;31.70;99070.25;1756874;78;21481;-9
2021/01/22 09:18:21;;;;;;;18.75;10.08;;;;;;;23.13;32.07;99073.08;1749499;79;21108;-8
2021/01/22 09:21:00;;;;;;;17.80;11.03;;;;;;;23.08;32.30;99060.59;1732026;79;21164;-8
2021/01/22 09:23:28;;;;;;;20.40;12.88;;;;;;;22.99;32.26;99057.75;1776562;78;21577;-8
2021/01/22 09:25:57;;;;;;;16.57;11.33;;;;;;;22.87;29.98;99061.58;1781008;77;21291;-8
2021/01/22 09:28:27;;;;;;;16.02;11.28;;;;;;;22.50;30.48;99061.47;1768309;79;21143;-8
2021/01/22 09:30:55;;;;;;;20.55;12.70;;;;;;;22.12;30.20;99061.73;1760657;77;21180;-9
2021/01/22 09:33:22;;;;;;;18.12;12.10;;;;;;;21.71;30.92;99052.39;1776750;77;21146;-9
2021/01/22 09:35:52;;;;;;;15.63;11.80;;;;;;;21.40;31.70;99051.05;1780490;78;21182;-9
2021/01/22 09:38:20;;;;;;;17.80;12.15;;;;;;;21.21;31.89;99053.61;1794149;77;21315;-9
2021/01/22 09:40:49;;;;;;;25.15;11.48;;;;;;;21.10;32.18;99051.88;1770991;77;21112;-9
2021/01/22 09:43:17;;;;;;;24.32;12.25;;;;;;;21.02;32.33;99051.17;1777976;79;21652;-9
2021/01/22 09:45:45;;;;;;;13.98;11.25;;;;;;;21.02;32.31;99043.16;1757267;79;21625;-9
2021/01/22 09:48:16;;;;;;;15.28;10.85;;;;;;;21.11;32.61;99046.86;1817463;77;21179;-9
2021/01/22 09:50:42;;;;;;;17.27;10.72;;;;;;;21.13;32.71;99032.39;1782012;78;22165;-9
2021/01/22 09:53:10;;;;;;;17.25;10.90;;;;;;;21.18;32.52;99039.99;1785604;78;21144;-9
2021/01/22 09:55:40;;;;;;;15.43;11.33;;;;;;;21.17;32.73;99034.80;1785927;77;21154;-9
2021/01/22 09:58:08;;;;;;;14.40;10.90;;;;;;;21.18;32.71;99033.30;1765811;78;21151;-9
2021/01/22 10:00:35;;;;;;;16.70;11.03;;;;;;;21.22;32.81;99037.42;1743788;77;21191;-9
2021/01/22 10:03:03;;;;;;;16.73;11.22;;;;;;;21.26;32.72;99027.30;1770694;79;21190;-9
2021/01/22 10:05:30;;;;;;;18.27;10.30;;;;;;;21.29;32.60;99027.04;1775912;78;21135;-9
2021/01/22 10:07:58;;;;;;;11.85;10.05;;;;;;;21.30;32.64;99026.04;1779613;78;21633;-9
2021/01/22 10:10:25;;;;;;;12.60;10.38;;;;;;;21.32;32.59;99022.77;1760712;78;21641;-9
2021/01/22 10:12:53;;;;;;;13.98;10.48;;;;;;;21.32;32.78;99025.44;1772728;78;21247;-8
2021/01/22 10:15:21;;;;;;;15.03;11.00;;;;;;;21.32;32.83;99021.43;1749674;79;21349;-9
2021/01/22 10:17:48;;;;;;;14.10;10.98;;;;;;;21.30;32.93;99012.66;1797181;77;21457;-9
2021/01/22 10:20:17;;;;;;;14.75;11.18;;;;;;;21.27;32.99;99007.61;1807508;77;21120;-9
2021/01/22 10:22:46;;;;;;;19.48;11.95;;;;;;;21.25;33.20;99014.89;1769297;77;21211;-9
2021/01/22 10:25:13;;;;;;;15.55;10.55;;;;;;;21.22;32.83;99011.17;1802838;77;21541;-9
2021/01/22 10:27:41;;;;;;;15.43;11.30;;;;;;;21.18;32.95;99013.74;1754123;79;21171;-9
2021/01/22 10:30:10;;;;;;;16.80;12.05;;;;;;;21.13;33.19;99004.30;1777474;79;21569;-9
2021/01/22 10:32:38;;;;;;;14.33;11.10;;;;;;;21.14;33.25;99001.97;1771751;78;21159;-9
2021/01/22 10:35:08;;;;;;;13.68;10.20;;;;;;;21.19;33.24;98999.39;1753411;79;21592;-9
2021/01/22 10:37:36;;;;;;;15.88;10.95;;;;;;;21.22;33.28;98997.80;1770488;77;21128;-9
2021/01/22 10:40:05;;;;;;;12.37;9.88;;;;;;;21.24;33.70;98998.00;1769791;79;21155;-9
2021/01/22 10:42:33;;;;;;;15.63;9.70;;;;;;;21.27;34.39;98987.03;1781466;77;21151;-9
2021/01/22 10:45:00;;;;;;;17.25;10.28;;;;;;;21.34;37.07;98992.70;1756688;77;21148;-9
2021/01/22 10:47:32;;;;;;;24.05;9.90;;;;;;;21.42;39.75;98994.21;1753874;79;21121;-9
2021/01/22 10:49:59;;;;;;;16.32;9.88;;;;;;;21.51;40.81;98989.41;1766766;78;21139;-9
2021/01/22 10:52:29;;;;;;;14.18;9.43;;;;;;;21.59;41.15;98974.52;1798723;77;21232;-9
2021/01/22 10:54:57;;;;;;;14.07;9.90;;;;;;;21.69;40.64;98972.70;1790047;78;21188;-9
2021/01/22 10:57:24;;;;;;;18.25;9.80;;;;;;;21.78;39.94;98969.19;1738699;79;21095;-9
2021/01/22 10:59:52;;;;;;;17.73;9.40;;;;;;;21.87;39.25;98965.69;1778305;78;21160;-9
2021/01/22 11:02:19;;;;;;;14.20;9.48;;;;;;;21.96;38.70;98958.64;1749030;78;21328;-9
2021/01/22 11:04:47;;;;;;;14.20;9.25;;;;;;;22.04;38.16;98956.12;1768510;79;21302;-9
2021/01/22 11:07:14;;;;;;;20.10;10.75;;;;;;;22.14;37.73;98960.15;1741611;80;21173;-9
2021/01/22 11:09:43;;;;;;;22.10;13.35;;;;;;;22.20;36.45;98958.22;1741402;79;21166;-9
2021/01/22 11:12:14;;;;;;;24.35;12.95;;;;;;;22.26;35.11;98945.61;1755830;78;21137;-9
2021/01/22 11:14:47;;;;;;;19.48;13.03;;;;;;;22.26;34.29;98944.27;1761855;79;21195;-9
2021/01/22 11:17:14;;;;;;;17.60;11.65;;;;;;;22.25;33.52;98934.52;1773435;79;22140;-9
2021/01/22 11:19:42;;;;;;;17.12;11.28;;;;;;;22.26;33.18;98933.55;1780006;79;21156;-9
2021/01/22 11:22:09;;;;;;;14.68;10.93;;;;;;;22.27;32.96;98929.03;1750380;77;21617;-9
2021/01/22 11:24:36;;;;;;;15.98;11.30;;;;;;;22.28;32.51;98929.89;1766984;80;21170;-9
2021/01/22 11:27:04;;;;;;;15.30;11.20;;;;;;;22.25;32.06;98931.01;1699251;80;21152;-9
2021/01/22 11:29:32;;;;;;;15.80;11.65;;;;;;;22.25;31.91;98932.35;1718907;79;22203;-9
2021/01/22 11:32:00;;;;;;;15.43;11.55;;;;;;;22.22;31.66;98932.13;1728794;79;21179;-9
2021/01/22 11:34:29;;;;;;;15.00;11.20;;;;;;;22.21;31.45;98926.44;1728477;80;21179;-9
2021/01/22 11:36:57;;;;;;;15.78;10.85;;;;;;;22.20;31.47;98927.41;1727106;80;21190;-8
2021/01/22 11:39:24;;;;;;;13.75;10.82;;;;;;;22.20;31.39;98922.05;1763583;79;21143;-8
2021/01/22 11:41:52;;;;;;;14.95;10.63;;;;;;;22.19;31.17;98915.02;1759143;79;21285;-9
2021/01/22 11:44:20;;;;;;;17.07;11.78;;;;;;;22.20;30.99;98916.69;1773954;79;21155;-9
2021/01/22 11:46:47;;;;;;;14.85;11.15;;;;;;;22.20;30.66;98917.20;1778195;77;21204;-9
2021/01/22 11:49:14;;;;;;;15.50;10.30;;;;;;;22.18;30.46;98924.03;1728840;79;21218;-9